Time;durP1;ratioP1;P1;durP2;ratioP2;P2;SDS_P1;SDS_P2;PMS_P1;PMS_P2;Temp;Humidity;BMP_temperature;BMP_pressure;BME280_temperature;BME280_humidity;BME280_pressure;Samples;Min_cycle;Max_cycle;Signal;HPM_P1;HPM_P2
2021/06/24 00:00:55;;;;;;;13.10;11.57;;;18.00;99.90;;;;;;5039425;28;20041;-73
2021/06/24 00:03:27;;;;;;;14.07;11.10;;;18.00;99.90;;;;;;5032891;28;20096;-73
2021/06/24 00:05:53;;;;;;;14.20;10.93;;;18.00;99.90;;;;;;5036387;28;20120;-73
2021/06/24 00:08:19;;;;;;;12.00;10.77;;;18.00;99.90;;;;;;5035594;28;20056;-73
2021/06/24 00:10:48;;;;;;;13.82;11.35;;;18.00;99.90;;;;;;5043090;28;20524;-73
2021/06/24 00:13:14;;;;;;;12.45;10.73;;;18.00;99.90;;;;;;5039973;28;20579;-72
2021/06/24 00:15:40;;;;;;;15.73;12.38;;;18.00;99.90;;;;;;5039665;28;20115;-73
2021/06/24 00:18:06;;;;;;;14.73;11.60;;;18.00;99.90;;;;;;5043249;28;20478;-73
2021/06/24 00:20:32;;;;;;;13.40;12.00;;;17.90;99.90;;;;;;5041483;28;20447;-73
2021/06/24 00:22:57;;;;;;;13.68;11.15;;;17.90;99.90;;;;;;5040910;28;20037;-73
2021/06/24 00:25:25;;;;;;;12.95;11.00;;;17.90;99.90;;;;;;5037243;28;20044;-73
2021/06/24 00:27:51;;;;;;;13.95;11.13;;;17.90;99.90;;;;;;5040081;28;20040;-73
2021/06/24 00:30:17;;;;;;;15.15;11.00;;;17.90;99.90;;;;;;5045572;28;20025;-73
2021/06/24 00:32:42;;;;;;;14.38;11.75;;;17.90;99.90;;;;;;5047680;28;20079;-74
2021/06/24 00:35:08;;;;;;;13.27;10.68;;;17.90;99.90;;;;;;5044259;28;20044;-73
2021/06/24 00:37:35;;;;;;;12.93;11.07;;;17.90;99.90;;;;;;5035465;28;20321;-72
2021/06/24 00:40:01;;;;;;;15.10;11.45;;;17.90;99.90;;;;;;5036125;28;20065;-75
2021/06/24 00:42:29;;;;;;;12.60;10.93;;;17.90;99.90;;;;;;5035857;28;20024;-75
2021/06/24 00:44:56;;;;;;;14.55;11.48;;;17.90;99.90;;;;;;5037600;28;20727;-76
2021/06/24 00:47:21;;;;;;;14.25;12.07;;;17.90;99.90;;;;;;5037635;28;20115;-75
2021/06/24 00:49:49;;;;;;;16.05;12.15;;;17.80;99.90;;;;;;5038118;28;20108;-76
2021/06/24 00:52:17;;;;;;;14.63;11.75;;;17.80;99.90;;;;;;5043085;28;20036;-75
2021/06/24 00:54:43;;;;;;;12.68;11.35;;;17.80;99.90;;;;;;5041818;28;20025;-75
2021/06/24 00:57:09;;;;;;;14.93;11.02;;;17.80;99.90;;;;;;5040848;28;20035;-75
2021/06/24 00:59:34;;;;;;;12.60;11.13;;;17.80;99.90;;;;;;5034460;28;20051;-75
2021/06/24 01:02:00;;;;;;;13.32;11.93;;;17.80;99.90;;;;;;5033998;28;20039;-75
2021/06/24 01:04:28;;;;;;;13.68;11.15;;;17.80;99.90;;;;;;5034430;28;20040;-75
2021/06/24 01:06:56;;;;;;;12.40;11.10;;;17.80;99.90;;;;;;5037072;28;20032;-75
2021/06/24 01:09:21;;;;;;;12.80;11.15;;;17.80;99.90;;;;;;5039842;28;20025;-75
2021/06/24 01:11:48;;;;;;;14.30;11.75;;;17.80;99.90;;;;;;5042301;28;20035;-75
2021/06/24 01:14:13;;;;;;;14.48;12.13;;;17.80;99.90;;;;;;5029942;28;20025;-75
2021/06/24 01:16:41;;;;;;;13.60;11.52;;;17.80;99.90;;;;;;5042298;28;20035;-75
2021/06/24 01:19:07;;;;;;;13.98;11.68;;;17.70;99.90;;;;;;5042943;28;20374;-75
2021/06/24 01:21:35;;;;;;;12.73;11.38;;;17.70;99.90;;;;;;5038053;28;20035;-75
2021/06/24 01:24:01;;;;;;;14.55;11.90;;;17.70;99.90;;;;;;5036849;28;20057;-75
2021/06/24 01:26:29;;;;;;;13.77;11.93;;;17.70;99.90;;;;;;5037825;28;20033;-75
2021/06/24 01:28:54;;;;;;;15.00;13.05;;;17.70;99.90;;;;;;5039460;28;20037;-75
2021/06/24 01:31:23;;;;;;;14.88;12.32;;;17.70;99.90;;;;;;5040161;28;20040;-76
2021/06/24 01:33:51;;;;;;;15.13;12.48;;;17.70;99.90;;;;;;5041294;28;20911;-75
2021/06/24 01:36:20;;;;;;;13.80;12.40;;;17.60;99.90;;;;;;5037837;28;20041;-75
2021/06/24 01:38:46;;;;;;;14.98;13.20;;;17.60;99.90;;;;;;5034828;28;20029;-75
2021/06/24 01:41:12;;;;;;;14.88;11.82;;;17.60;99.90;;;;;;5037503;28;20056;-75
2021/06/24 01:43:38;;;;;;;15.70;12.63;;;17.60;99.90;;;;;;5038894;28;22037;-75
2021/06/24 01:46:03;;;;;;;14.60;11.95;;;17.60;99.90;;;;;;5043865;28;20033;-75
2021/06/24 01:48:29;;;;;;;15.15;12.30;;;17.60;99.90;;;;;;5037711;28;20082;-75
2021/06/24 01:50:56;;;;;;;12.40;11.07;;;17.60;99.90;;;;;;5037415;28;20040;-75
2021/06/24 01:53:22;;;;;;;17.42;12.77;;;17.70;99.90;;;;;;5021405;28;20032;-75
2021/06/24 01:55:50;;;;;;;16.02;12.40;;;17.60;99.90;;;;;;5037901;28;20358;-75
2021/06/24 01:58:19;;;;;;;13.52;12.07;;;17.60;99.90;;;;;;5034061;28;20040;-75
2021/06/24 02:00:47;;;;;;;14.05;12.23;;;17.60;99.90;;;;;;5036209;28;20029;-75
2021/06/24 02:03:13;;;;;;;13.75;12.25;;;17.60;99.90;;;;;;5033846;28;20876;-75
2021/06/24 02:05:42;;;;;;;14.27;11.85;;;17.60;99.90;;;;;;5006208;28;20086;-75
2021/06/24 02:08:15;;;;;;;14.43;12.38;;;17.60;99.90;;;;;;5019554;28;20139;-75
2021/06/24 02:10:42;;;;;;;13.88;12.07;;;17.60;99.90;;;;;;5038314;28;20124;-75
2021/06/24 02:13:07;;;;;;;12.95;11.18;;;17.50;99.90;;;;;;5035321;28;20474;-75
2021/06/24 02:15:33;;;;;;;13.75;11.63;;;17.60;99.90;;;;;;5016294;28;20083;-75
2021/06/24 02:17:59;;;;;;;15.27;12.02;;;17.50;99.90;;;;;;5044239;28;20044;-75
2021/06/24 02:20:24;;;;;;;13.82;12.35;;;17.50;99.90;;;;;;5043376;28;20089;-75
2021/06/24 02:22:50;;;;;;;14.20;12.80;;;17.50;99.90;;;;;;5035279;28;20575;-75
2021/06/24 02:25:18;;;;;;;14.90;12.75;;;17.50;99.90;;;;;;5037125;28;20056;-75
2021/06/24 02:27:45;;;;;;;15.40;12.45;;;17.50;99.90;;;;;;5041087;28;20029;-75
2021/06/24 02:30:15;;;;;;;14.00;12.43;;;17.50;99.90;;;;;;5039619;28;20478;-75
2021/06/24 02:32:45;;;;;;;14.73;12.57;;;17.40;99.90;;;;;;5039907;28;20033;-75
2021/06/24 02:35:15;;;;;;;13.88;12.25;;;17.40;99.90;;;;;;5006789;28;20381;-75
2021/06/24 02:37:49;;;;;;;13.90;11.65;;;17.50;99.90;;;;;;5034279;28;20025;-75
2021/06/24 02:40:16;;;;;;;16.27;12.82;;;17.40;99.90;;;;;;5036592;28;20155;-75
2021/06/24 02:42:44;;;;;;;14.43;12.98;;;17.40;99.90;;;;;;5051538;28;20029;-75
2021/06/24 02:45:10;;;;;;;14.63;12.52;;;17.40;99.90;;;;;;5036179;28;20151;-75
2021/06/24 02:47:36;;;;;;;14.20;12.15;;;17.40;99.90;;;;;;5035674;28;20063;-75
2021/06/24 02:50:02;;;;;;;16.55;12.25;;;17.40;99.90;;;;;;5039245;28;20116;-75
2021/06/24 02:52:30;;;;;;;13.82;12.40;;;17.40;99.90;;;;;;5038557;28;20036;-75
2021/06/24 02:54:56;;;;;;;13.00;11.73;;;17.30;99.90;;;;;;5042042;28;20019;-75
2021/06/24 02:57:24;;;;;;;15.55;12.20;;;17.30;99.90;;;;;;5035364;28;20587;-75
2021/06/24 02:59:52;;;;;;;13.35;12.02;;;17.30;99.90;;;;;;5037369;28;20098;-75
2021/06/24 03:02:18;;;;;;;13.30;11.70;;;17.30;99.90;;;;;;5036628;28;20028;-75
2021/06/24 03:04:46;;;;;;;12.13;10.90;;;17.30;99.90;;;;;;5022553;28;20025;-75
2021/06/24 03:07:11;;;;;;;13.88;12.38;;;17.30;99.90;;;;;;5039542;28;20359;-75
2021/06/24 03:09:37;;;;;;;14.63;12.80;;;17.20;99.90;;;;;;5041028;28;20041;-75
2021/06/24 03:12:06;;;;;;;15.10;12.95;;;17.20;99.90;;;;;;5035511;28;20773;-75
2021/06/24 03:14:32;;;;;;;12.77;11.43;;;17.20;99.90;;;;;;5035797;28;20090;-75
2021/06/24 03:16:57;;;;;;;14.68;12.15;;;17.20;99.90;;;;;;5037450;28;20692;-75
2021/06/24 03:19:25;;;;;;;14.98;11.95;;;17.20;99.90;;;;;;5034614;28;20044;-75
2021/06/24 03:21:51;;;;;;;13.32;11.07;;;17.20;99.90;;;;;;5036667;28;20021;-75
2021/06/24 03:24:19;;;;;;;13.35;11.27;;;17.20;99.90;;;;;;5036339;28;20119;-75
2021/06/24 03:26:45;;;;;;;12.30;10.48;;;17.10;99.90;;;;;;5038283;28;20045;-75
2021/06/24 03:29:13;;;;;;;13.07;10.63;;;17.20;99.90;;;;;;5038826;28;20039;-75
2021/06/24 03:31:38;;;;;;;12.32;11.02;;;17.20;99.90;;;;;;5035923;28;20117;-75
2021/06/24 03:34:04;;;;;;;12.57;11.27;;;17.20;99.90;;;;;;5022539;28;20029;-75
2021/06/24 03:36:32;;;;;;;12.95;11.57;;;17.20;99.90;;;;;;5036893;28;20343;-75
2021/06/24 03:38:58;;;;;;;13.02;10.95;;;17.20;99.90;;;;;;5037040;28;20056;-75
2021/06/24 03:41:26;;;;;;;15.05;11.57;;;17.20;99.90;;;;;;5036682;28;20023;-75
2021/06/24 03:43:58;;;;;;;13.30;11.90;;;17.20;99.90;;;;;;5037620;28;20052;-75
2021/06/24 03:46:33;;;;;;;12.02;10.82;;;17.10;99.90;;;;;;5040611;28;20059;-75
2021/06/24 03:48:58;;;;;;;14.27;10.90;;;17.20;99.90;;;;;;5040227;28;20086;-75
2021/06/24 03:51:26;;;;;;;12.23;10.32;;;17.20;99.90;;;;;;5036860;28;20020;-75
2021/06/24 03:53:52;;;;;;;12.98;11.50;;;17.20;99.90;;;;;;5034130;28;20339;-75
2021/06/24 03:56:17;;;;;;;13.25;11.52;;;17.20;99.90;;;;;;5031037;28;20033;-75
2021/06/24 03:58:43;;;;;;;14.25;12.00;;;17.20;99.90;;;;;;5032807;28;20021;-75
2021/06/24 04:01:11;;;;;;;15.65;11.65;;;17.20;99.90;;;;;;5035079;28;20095;-75
2021/06/24 04:03:37;;;;;;;13.13;11.73;;;17.30;99.90;;;;;;5034776;28;20036;-75
2021/06/24 04:06:03;;;;;;;13.70;11.93;;;17.30;99.90;;;;;;5034526;28;20033;-75
2021/06/24 04:08:28;;;;;;;14.00;12.25;;;17.30;99.90;;;;;;5037200;28;20049;-75
2021/06/24 04:10:54;;;;;;;12.90;11.43;;;17.30;99.90;;;;;;5040947;28;20025;-75
2021/06/24 04:13:22;;;;;;;15.38;11.98;;;17.30;99.90;;;;;;5043865;28;20026;-75
2021/06/24 04:15:50;;;;;;;13.57;12.18;;;17.30;99.90;;;;;;5048205;28;20029;-75
2021/06/24 04:18:20;;;;;;;15.23;12.50;;;17.30;99.90;;;;;;5063528;28;20104;-75
2021/06/24 04:20:46;;;;;;;15.50;13.80;;;17.30;99.90;;;;;;5045416;28;20086;-75
2021/06/24 04:23:12;;;;;;;16.08;13.63;;;17.40;99.90;;;;;;5040536;28;20041;-75
2021/06/24 04:25:37;;;;;;;13.82;12.43;;;17.40;99.90;;;;;;5046334;28;20026;-75
2021/06/24 04:28:03;;;;;;;14.57;12.77;;;17.40;99.90;;;;;;5040227;28;20034;-75
2021/06/24 04:30:32;;;;;;;14.52;12.30;;;17.40;99.90;;;;;;5036879;28;20068;-75
2021/06/24 04:32:59;;;;;;;14.57;12.57;;;17.50;99.90;;;;;;5039582;28;20106;-75
2021/06/24 04:35:25;;;;;;;14.48;12.20;;;17.50;99.90;;;;;;5062055;28;20039;-75
2021/06/24 04:37:53;;;;;;;13.85;12.27;;;17.50;99.90;;;;;;5040969;28;20048;-75
2021/06/24 04:40:19;;;;;;;15.73;13.15;;;17.60;99.90;;;;;;5044205;28;20028;-75
2021/06/24 04:42:44;;;;;;;13.93;12.43;;;17.60;99.90;;;;;;5036261;28;20088;-75
2021/06/24 04:45:11;;;;;;;14.27;12.35;;;17.60;99.90;;;;;;5038363;28;20442;-73
2021/06/24 04:47:36;;;;;;;13.27;11.95;;;17.60;99.90;;;;;;5025104;28;20474;-73
2021/06/24 04:50:05;;;;;;;14.38;12.88;;;17.60;99.90;;;;;;5038774;28;20175;-75
2021/06/24 04:52:31;;;;;;;14.70;12.60;;;17.60;99.90;;;;;;5034293;28;20033;-75
2021/06/24 04:54:57;;;;;;;14.95;12.30;;;17.70;99.90;;;;;;5038815;28;20086;-75
2021/06/24 04:57:24;;;;;;;14.93;13.32;;;17.60;99.90;;;;;;5033793;28;20040;-75
2021/06/24 04:59:50;;;;;;;15.00;12.88;;;17.60;99.90;;;;;;5041580;28;20473;-75
2021/06/24 05:02:17;;;;;;;15.35;12.48;;;17.70;99.90;;;;;;5038712;28;20029;-75
2021/06/24 05:04:43;;;;;;;15.10;13.50;;;17.80;99.90;;;;;;5038307;28;20095;-75
2021/06/24 05:07:11;;;;;;;15.32;12.48;;;17.80;99.90;;;;;;5034744;28;20028;-75
2021/06/24 05:09:41;;;;;;;13.95;12.55;;;17.80;99.90;;;;;;5033892;28;20052;-75
2021/06/24 05:12:10;;;;;;;14.80;13.00;;;17.80;99.90;;;;;;5038763;28;20116;-75
2021/06/24 05:14:39;;;;;;;13.18;11.75;;;17.90;99.90;;;;;;5031788;28;20037;-75
2021/06/24 05:17:12;;;;;;;14.27;12.50;;;17.90;99.90;;;;;;5037061;28;20467;-75
2021/06/24 05:19:41;;;;;;;14.77;12.50;;;17.80;99.90;;;;;;5022411;28;20136;-75
2021/06/24 05:22:08;;;;;;;13.38;11.98;;;17.90;99.90;;;;;;5037054;28;20052;-75
2021/06/24 05:24:36;;;;;;;13.88;12.38;;;17.90;99.90;;;;;;5039307;28;20053;-75
2021/06/24 05:27:07;;;;;;;13.02;11.50;;;17.90;99.90;;;;;;5040273;28;20033;-75
2021/06/24 05:29:32;;;;;;;13.95;12.50;;;18.00;99.90;;;;;;5039948;28;20104;-73
2021/06/24 05:31:58;;;;;;;15.82;13.07;;;17.90;99.90;;;;;;5041949;28;20179;-73
2021/06/24 05:34:23;;;;;;;14.23;12.48;;;17.90;99.90;;;;;;5040831;28;20764;-73
2021/06/24 05:36:50;;;;;;;12.98;11.52;;;18.00;99.90;;;;;;5041447;28;20025;-73
2021/06/24 05:39:15;;;;;;;13.77;12.32;;;18.00;99.90;;;;;;5034922;28;20040;-73
2021/06/24 05:41:41;;;;;;;13.27;11.82;;;17.90;99.90;;;;;;5041885;28;20017;-73
2021/06/24 05:44:09;;;;;;;13.80;11.57;;;18.00;99.90;;;;;;5024725;28;20467;-73
2021/06/24 05:46:37;;;;;;;13.50;11.68;;;18.00;99.90;;;;;;5041796;28;20129;-73
2021/06/24 05:49:04;;;;;;;13.57;11.35;;;18.00;99.90;;;;;;5040087;28;20033;-73
2021/06/24 05:51:30;;;;;;;13.77;12.20;;;18.00;99.90;;;;;;5042871;28;20079;-73
2021/06/24 05:53:56;;;;;;;14.13;12.45;;;18.00;99.90;;;;;;5042198;28;20025;-74
2021/06/24 05:56:23;;;;;;;14.60;12.57;;;18.00;99.90;;;;;;5036263;28;20044;-73
2021/06/24 05:58:49;;;;;;;15.18;12.02;;;18.00;99.90;;;;;;5035884;28;20102;-73
2021/06/24 06:01:17;;;;;;;13.35;11.63;;;18.00;99.90;;;;;;5032115;28;20032;-73
2021/06/24 06:03:45;;;;;;;14.30;11.80;;;18.00;99.90;;;;;;5036534;28;20028;-74
2021/06/24 06:06:10;;;;;;;13.18;11.77;;;18.00;99.90;;;;;;5037420;28;20032;-73
2021/06/24 06:08:36;;;;;;;14.15;12.55;;;18.00;99.90;;;;;;5037692;28;20543;-73
2021/06/24 06:11:04;;;;;;;15.13;13.13;;;18.00;99.90;;;;;;5036562;28;20025;-73
2021/06/24 06:13:30;;;;;;;15.30;13.80;;;18.00;99.90;;;;;;5037004;28;20040;-70
2021/06/24 06:15:56;;;;;;;17.15;13.07;;;18.00;99.90;;;;;;5038671;28;20021;-71
2021/06/24 06:18:26;;;;;;;18.98;15.40;;;18.00;99.90;;;;;;5008670;28;20579;-73
2021/06/24 06:20:52;;;;;;;16.60;14.68;;;18.10;99.90;;;;;;5037454;28;20095;-73
2021/06/24 06:23:20;;;;;;;14.85;13.35;;;18.10;99.90;;;;;;5038761;28;20120;-71
2021/06/24 06:25:46;;;;;;;16.35;14.75;;;18.10;99.90;;;;;;5041014;28;20090;-71
2021/06/24 06:28:13;;;;;;;16.10;14.00;;;18.10;99.90;;;;;;5026346;28;20037;-71
2021/06/24 06:30:41;;;;;;;16.30;14.15;;;18.00;99.90;;;;;;5012229;28;20067;-74
2021/06/24 06:33:09;;;;;;;15.35;13.35;;;18.10;99.90;;;;;;5037555;28;20086;-73
2021/06/24 06:35:35;;;;;;;16.83;14.63;;;18.00;99.90;;;;;;5040033;28;20646;-74
2021/06/24 06:38:03;;;;;;;16.17;14.48;;;18.00;99.90;;;;;;5028255;28;20032;-73
2021/06/24 06:40:31;;;;;;;16.80;13.90;;;18.00;99.90;;;;;;5038049;28;20036;-74
2021/06/24 06:42:57;;;;;;;18.38;15.43;;;18.00;99.90;;;;;;5027348;28;20420;-77
2021/06/24 06:45:26;;;;;;;18.23;15.55;;;18.00;99.90;;;;;;5040232;28;20109;-75
2021/06/24 06:47:52;;;;;;;15.90;14.13;;;18.00;99.90;;;;;;5041945;28;20039;-74
2021/06/24 06:50:22;;;;;;;18.30;16.40;;;18.00;99.90;;;;;;5040867;28;20634;-76
2021/06/24 06:52:48;;;;;;;21.25;19.05;;;18.00;99.90;;;;;;5038536;28;20025;-75
2021/06/24 06:55:14;;;;;;;19.23;17.13;;;18.00;99.90;;;;;;5040398;28;20028;-76
2021/06/24 06:57:43;;;;;;;19.00;16.85;;;18.00;99.90;;;;;;5038136;28;20148;-75
2021/06/24 07:00:09;;;;;;;17.63;15.77;;;18.00;99.90;;;;;;5038231;28;20160;-76
2021/06/24 07:02:38;;;;;;;19.85;17.73;;;17.90;99.90;;;;;;5039291;28;20041;-76
2021/06/24 07:05:07;;;;;;;21.38;19.08;;;17.90;99.90;;;;;;5034827;28;20408;-73
2021/06/24 07:07:34;;;;;;;20.55;17.85;;;17.80;99.90;;;;;;5039526;28;20085;-73
2021/06/24 07:10:02;;;;;;;18.60;16.70;;;17.90;99.90;;;;;;5034891;28;20017;-73
2021/06/24 07:12:31;;;;;;;21.63;19.02;;;17.90;99.90;;;;;;5039536;28;20033;-74
2021/06/24 07:14:58;;;;;;;21.13;18.83;;;17.80;99.90;;;;;;5038984;28;20041;-76
2021/06/24 07:17:24;;;;;;;21.85;17.83;;;17.80;99.90;;;;;;5023244;28;20047;-74
2021/06/24 07:19:50;;;;;;;18.25;16.33;;;17.80;99.90;;;;;;5039819;28;20029;-74
2021/06/24 07:22:15;;;;;;;24.85;18.33;;;17.80;99.90;;;;;;5040051;28;20033;-74
2021/06/24 07:24:41;;;;;;;19.77;16.80;;;17.80;99.90;;;;;;5038461;28;20057;-75
2021/06/24 07:27:07;;;;;;;20.08;18.02;;;17.80;99.90;;;;;;5040420;28;20051;-75
2021/06/24 07:29:32;;;;;;;22.52;19.17;;;17.80;99.90;;;;;;5036299;28;20240;-75
2021/06/24 07:32:03;;;;;;;20.67;18.25;;;17.90;99.90;;;;;;5037412;28;20060;-75
2021/06/24 07:34:29;;;;;;;18.90;17.00;;;17.90;99.90;;;;;;5041307;28;20434;-75
2021/06/24 07:36:54;;;;;;;19.52;17.52;;;17.80;99.90;;;;;;5042429;28;20090;-75
2021/06/24 07:39:20;;;;;;;23.15;19.20;;;17.80;99.90;;;;;;5043643;28;20093;-75
2021/06/24 07:41:46;;;;;;;23.30;20.58;;;17.90;99.90;;;;;;5044840;28;20028;-76
2021/06/24 07:44:11;;;;;;;23.23;19.00;;;17.80;99.90;;;;;;5041365;28;20045;-76
2021/06/24 07:46:37;;;;;;;21.63;19.35;;;17.80;99.90;;;;;;5043145;28;20028;-76
2021/06/24 07:49:05;;;;;;;22.27;19.88;;;17.80;99.90;;;;;;5043199;28;20475;-76
2021/06/24 07:51:31;;;;;;;22.25;19.50;;;17.80;99.90;;;;;;5044970;28;20029;-76
2021/06/24 07:53:57;;;;;;;22.55;19.95;;;17.80;99.90;;;;;;5044646;28;21985;-76
2021/06/24 07:56:22;;;;;;;19.73;17.17;;;17.70;99.90;;;;;;5044600;28;20101;-77
2021/06/24 07:58:51;;;;;;;19.52;17.38;;;17.70;99.90;;;;;;5042962;28;20029;-75
2021/06/24 08:01:16;;;;;;;24.58;19.30;;;17.80;99.90;;;;;;5045241;28;20087;-76
2021/06/24 08:03:45;;;;;;;22.08;19.52;;;17.80;99.90;;;;;;5028900;28;20032;-76
2021/06/24 08:06:15;;;;;;;21.73;18.00;;;17.70;99.90;;;;;;5042936;28;20038;-75
2021/06/24 08:08:45;;;;;;;20.75;17.35;;;17.70;99.90;;;;;;5047049;28;20039;-75
2021/06/24 08:11:11;;;;;;;28.50;19.17;;;17.70;99.90;;;;;;5044962;28;20381;-76
2021/06/24 08:13:37;;;;;;;18.33;16.40;;;17.70;99.90;;;;;;5045943;28;20054;-75
2021/06/24 08:16:05;;;;;;;18.10;16.20;;;17.70;99.90;;;;;;5043853;28;20078;-75
2021/06/24 08:18:34;;;;;;;18.13;16.33;;;17.70;99.90;;;;;;5046262;28;20039;-75
2021/06/24 08:21:01;;;;;;;21.45;18.02;;;17.70;99.90;;;;;;5028486;28;20044;-75
2021/06/24 08:23:27;;;;;;;20.55;16.08;;;17.70;99.90;;;;;;5043153;28;20025;-75
2021/06/24 08:25:54;;;;;;;19.42;17.42;;;17.70;99.90;;;;;;5041068;28;20246;-75
2021/06/24 08:28:22;;;;;;;17.42;15.20;;;17.70;99.90;;;;;;5062304;28;20033;-75
2021/06/24 08:30:48;;;;;;;17.77;15.88;;;17.70;99.90;;;;;;5039554;28;20432;-75
2021/06/24 08:33:14;;;;;;;18.40;15.60;;;17.80;99.90;;;;;;5045025;28;20033;-75
2021/06/24 08:35:40;;;;;;;16.58;14.70;;;17.80;99.90;;;;;;5044172;28;20032;-75
2021/06/24 08:38:11;;;;;;;17.60;15.80;;;17.80;99.90;;;;;;5042073;28;20026;-75
2021/06/24 08:40:38;;;;;;;18.58;15.85;;;17.80;99.90;;;;;;5043676;28;20043;-76
2021/06/24 08:43:06;;;;;;;16.63;14.82;;;17.90;99.90;;;;;;5039698;28;20600;-75
2021/06/24 08:45:32;;;;;;;18.20;16.23;;;17.80;99.90;;;;;;5044335;28;20022;-75
2021/06/24 08:48:00;;;;;;;17.63;14.70;;;17.80;99.90;;;;;;5042490;28;20048;-76
2021/06/24 08:50:30;;;;;;;18.67;16.73;;;17.90;99.90;;;;;;5042361;28;20033;-76
2021/06/24 08:52:58;;;;;;;20.02;17.50;;;17.90;99.90;;;;;;5041545;28;20041;-76
2021/06/24 08:55:35;;;;;;;19.23;16.88;;;17.90;99.90;;;;;;5040063;28;20052;-76
2021/06/24 08:58:01;;;;;;;17.45;15.52;;;17.90;99.90;;;;;;5044489;28;20033;-75
2021/06/24 09:00:31;;;;;;;18.02;15.43;;;17.90;99.90;;;;;;5040911;28;20584;-75
2021/06/24 09:02:59;;;;;;;17.40;15.50;;;17.90;99.90;;;;;;5041605;28;20040;-76
2021/06/24 09:05:27;;;;;;;19.08;16.92;;;17.90;99.90;;;;;;5040635;28;20017;-77
2021/06/24 09:07:53;;;;;;;19.73;17.63;;;17.90;99.90;;;;;;5040484;28;20394;-76
2021/06/24 09:10:20;;;;;;;18.92;16.92;;;17.90;99.90;;;;;;5043406;28;20152;-76
2021/06/24 09:12:56;;;;;;;20.58;17.58;;;17.90;99.90;;;;;;5044137;28;20104;-76
2021/06/24 09:15:23;;;;;;;20.33;17.58;;;18.00;99.90;;;;;;5027361;28;20024;-75
2021/06/24 09:17:49;;;;;;;19.00;16.85;;;17.90;99.90;;;;;;5036828;28;20083;-76
2021/06/24 09:20:26;;;;;;;16.73;14.88;;;17.90;99.90;;;;;;5024256;28;20494;-76
2021/06/24 09:23:14;;;;;;;20.02;16.45;;;18.00;99.90;;;;;;5041684;28;20125;-77
2021/06/24 09:25:42;;;;;;;20.95;17.02;;;18.00;99.90;;;;;;5039607;28;20048;-77
2021/06/24 09:28:08;;;;;;;19.20;16.15;;;18.00;99.90;;;;;;5037754;28;20037;-76
2021/06/24 09:30:35;;;;;;;18.33;16.27;;;18.00;99.90;;;;;;5038363;28;20620;-76
2021/06/24 09:33:08;;;;;;;21.20;17.08;;;18.00;99.90;;;;;;5040620;28;20055;-76
2021/06/24 09:35:34;;;;;;;18.80;16.77;;;18.00;99.90;;;;;;5042010;28;20056;-76
2021/06/24 09:38:11;;;;;;;20.75;17.30;;;18.00;99.90;;;;;;5042422;28;20525;-76
2021/06/24 09:40:48;;;;;;;18.52;15.20;;;18.00;99.90;;;;;;5041231;28;20033;-76
2021/06/24 09:43:27;;;;;;;21.08;15.00;;;18.10;99.90;;;;;;5040388;28;20037;-76
2021/06/24 09:46:23;;;;;;;19.42;17.10;;;18.10;99.90;;;;;;5042324;28;20044;-76
2021/06/24 09:48:59;;;;;;;19.08;16.00;;;18.10;99.90;;;;;;5041211;28;20048;-73
2021/06/24 09:51:30;;;;;;;20.20;16.42;;;18.10;99.90;;;;;;5041166;28;20530;-72
2021/06/24 09:54:13;;;;;;;20.50;17.42;;;18.10;99.90;;;;;;5041127;28;20089;-71
2021/06/24 09:56:45;;;;;;;20.17;17.63;;;18.10;99.90;;;;;;5042652;28;20043;-76
2021/06/24 09:59:13;;;;;;;22.90;17.02;;;18.10;99.90;;;;;;5030331;28;20053;-76
2021/06/24 10:01:48;;;;;;;17.50;15.27;;;18.10;99.90;;;;;;5041690;28;20082;-76
2021/06/24 10:04:28;;;;;;;15.80;14.10;;;18.10;99.90;;;;;;5040088;28;20689;-75
2021/06/24 10:06:57;;;;;;;17.95;14.90;;;18.20;99.90;;;;;;5042936;28;20048;-75
2021/06/24 10:09:26;;;;;;;19.77;16.33;;;18.10;99.90;;;;;;5041214;28;20734;-75
2021/06/24 10:11:54;;;;;;;20.83;17.13;;;18.20;99.90;;;;;;5025230;28;20057;-75
2021/06/24 10:14:20;;;;;;;19.58;16.52;;;18.10;99.90;;;;;;5041035;28;20025;-75
2021/06/24 10:16:54;;;;;;;19.52;16.10;;;18.20;99.90;;;;;;5038199;28;20484;-75
2021/06/24 10:19:25;;;;;;;16.20;14.48;;;18.20;99.90;;;;;;5039359;28;20017;-75
2021/06/24 10:21:52;;;;;;;19.25;15.27;;;18.20;99.90;;;;;;5039370;28;20029;-75
2021/06/24 10:24:28;;;;;;;17.65;14.82;;;18.20;99.90;;;;;;5022795;28;20179;-75
2021/06/24 10:26:53;;;;;;;20.73;16.77;;;18.20;99.90;;;;;;5026161;28;20033;-75
2021/06/24 10:29:21;;;;;;;19.08;16.23;;;18.20;99.90;;;;;;5021280;28;20032;-75
2021/06/24 10:31:48;;;;;;;20.08;16.35;;;18.20;99.90;;;;;;5039156;28;20029;-75
2021/06/24 10:34:14;;;;;;;18.95;15.63;;;18.20;99.90;;;;;;5043265;28;20124;-75
2021/06/24 10:36:40;;;;;;;20.15;15.73;;;18.20;99.90;;;;;;5041055;28;20029;-75
2021/06/24 10:39:06;;;;;;;19.17;15.07;;;18.20;99.90;;;;;;5040854;28;20038;-75
2021/06/24 10:42:01;;;;;;;17.02;14.48;;;18.20;99.90;;;;;;5040417;28;20018;-75
2021/06/24 10:44:42;;;;;;;18.90;15.50;;;18.30;99.90;;;;;;5041796;28;20026;-75
2021/06/24 10:47:08;;;;;;;18.75;16.00;;;18.30;99.90;;;;;;5041288;28;20049;-75
2021/06/24 10:49:33;;;;;;;24.48;17.10;;;18.30;99.90;;;;;;5039380;28;20044;-76
2021/06/24 10:52:27;;;;;;;16.73;14.90;;;18.30;99.90;;;;;;5038140;28;20083;-72
2021/06/24 10:55:02;;;;;;;16.70;14.32;;;18.30;99.90;;;;;;5042218;28;20021;-72
2021/06/24 10:57:36;;;;;;;17.95;14.88;;;18.30;99.90;;;;;;5041801;28;20090;-75
2021/06/24 11:00:29;;;;;;;15.65;13.80;;;18.30;99.90;;;;;;5039860;28;20033;-75
2021/06/24 11:02:57;;;;;;;16.88;13.60;;;18.30;99.90;;;;;;5041898;28;20079;-75
2021/06/24 11:05:25;;;;;;;18.05;15.27;;;18.30;99.90;;;;;;5024046;28;20036;-72
2021/06/24 11:07:51;;;;;;;17.15;14.70;;;18.30;99.90;;;;;;5044694;28;20462;-72
2021/06/24 11:10:26;;;;;;;18.08;15.38;;;18.30;99.90;;;;;;5028817;28;20096;-74
2021/06/24 11:13:02;;;;;;;19.23;16.02;;;18.30;99.90;;;;;;5038461;28;20136;-74
2021/06/24 11:15:51;;;;;;;21.00;15.95;;;18.30;99.90;;;;;;5040251;28;20017;-74
2021/06/24 11:18:38;;;;;;;19.52;15.45;;;18.40;99.90;;;;;;5044109;28;20517;-73
2021/06/24 11:21:13;;;;;;;18.42;15.25;;;18.40;99.90;;;;;;5042841;28;20021;-74
2021/06/24 11:23:49;;;;;;;18.65;15.77;;;18.40;99.90;;;;;;4349257;28;10000721;-73
2021/06/24 11:26:15;;;;;;;18.85;16.70;;;18.40;99.90;;;;;;5044056;28;20025;-74
2021/06/24 11:28:49;;;;;;;18.38;15.48;;;18.30;99.90;;;;;;5041774;28;20033;-74
2021/06/24 11:31:16;;;;;;;19.15;14.93;;;18.40;99.90;;;;;;5041321;28;20044;-74
2021/06/24 11:33:49;;;;;;;18.48;15.05;;;18.30;99.90;;;;;;5042313;28;20056;-74
2021/06/24 11:36:17;;;;;;;18.17;14.40;;;18.30;99.90;;;;;;5042085;28;20030;-74
2021/06/24 11:38:46;;;;;;;18.13;15.25;;;18.30;99.90;;;;;;5042541;28;20416;-74
2021/06/24 11:41:14;;;;;;;21.60;16.45;;;18.30;99.90;;;;;;5043895;28;20421;-73
2021/06/24 11:43:44;;;;;;;20.70;17.02;;;18.30;99.90;;;;;;5024403;28;20086;-72
2021/06/24 11:46:12;;;;;;;18.58;16.20;;;18.30;99.90;;;;;;5020424;28;20111;-73
2021/06/24 11:48:40;;;;;;;18.27;15.80;;;18.30;99.90;;;;;;5041168;28;20055;-74
2021/06/24 12:04:55;;;;;;;20.08;16.00;;;18.40;99.90;;;;;;5025296;28;20051;-73
2021/06/24 12:07:23;;;;;;;16.33;14.50;;;18.40;99.90;;;;;;5011156;28;20065;-73
2021/06/24 12:09:50;;;;;;;16.88;15.07;;;18.40;99.90;;;;;;5042568;28;20395;-74
2021/06/24 12:12:21;;;;;;;22.00;17.83;;;18.40;99.90;;;;;;5029132;28;20036;-74
2021/06/24 12:14:48;;;;;;;19.00;17.00;;;18.50;99.90;;;;;;5040760;28;20068;-72
2021/06/24 12:17:28;;;;;;;19.48;16.25;;;18.50;99.90;;;;;;5010991;28;20274;-71
2021/06/24 12:20:07;;;;;;;20.00;16.48;;;18.50;99.90;;;;;;5041629;28;20099;-74
2021/06/24 12:22:34;;;;;;;25.50;18.35;;;18.50;99.90;;;;;;5041934;28;20107;-75
2021/06/24 12:25:03;;;;;;;20.38;16.63;;;18.40;99.90;;;;;;5038770;28;20743;-75
2021/06/24 12:27:32;;;;;;;20.35;17.25;;;18.40;99.90;;;;;;5038621;28;20049;-74
2021/06/24 12:30:24;;;;;;;20.73;16.77;;;18.40;99.90;;;;;;5038860;28;20032;-74
2021/06/24 12:32:57;;;;;;;20.13;16.92;;;18.40;99.90;;;;;;5041742;28;20040;-74
2021/06/24 12:35:42;;;;;;;19.50;15.93;;;18.40;99.90;;;;;;5037696;28;20033;-75
2021/06/24 12:38:15;;;;;;;20.33;16.52;;;18.40;99.90;;;;;;5037819;28;20025;-75
2021/06/24 12:40:45;;;;;;;25.42;18.50;;;18.50;99.90;;;;;;5024388;28;20420;-76
2021/06/24 12:43:19;;;;;;;21.30;16.85;;;18.50;99.90;;;;;;5037285;28;20517;-74
2021/06/24 12:45:48;;;;;;;22.45;17.90;;;18.50;99.90;;;;;;5037192;28;20120;-73